Gadsden, SC (29052)

10:54 PM EDT on March 27, 2017 (GMT -0400)
MGDNS1 | | Change Station

Elev 121 ft 33.81 °N, 80.78 °W | Updated 3 hours ago

Partly Cloudy
Partly Cloudy
78.0 °F
Feels Like 78.0 °F
N
0.0
Wind Variable Wind from North
Gusts 7.0 mph

Today
High -- | Low -- °F
--% Chance of Precip.
Yesterday
High -- | Low -- °F
Precip. -- in
Pressure 30.00 in
Visibility 10.0 miles
Clouds Few 4000 ft
Mostly Cloudy 11000 ft
Mostly Cloudy 25000 ft
Dew Point Not available.
Humidity Not available.
Rainfall 0.00 in
Snow Depth Not available.
7:16 AM 7:40 PM
New Moon, 0% visible
METAR KMMT 280158Z 15008KT 10SM FEW040 BKN110 BKN250 21/16 A2999 RMK AO2A SLP157 T02080160 $
Pressure 30.00 in
Visibility 10.0 miles
Clouds Few 4000 ft
Mostly Cloudy 11000 ft
Mostly Cloudy 25000 ft
Dew Point Not available.
Humidity Not available.
Rainfall 0.00 in
Snow Depth Not available.
7:16 AM 7:40 PM
New Moon, 0% visible
METAR KMMT 280158Z 15008KT 10SM FEW040 BKN110 BKN250 21/16 A2999 RMK AO2A SLP157 T02080160 $

Get Severe Weather Alerts

Thanks for signing up!

Be on the lookout for a verification email in your inbox.

You'll start receiving the daily forecast at 8 AM.

×

10-Day Weather Forecast

Almanac

Astronomy

Mar. 27, 2017 Rise Set
Actual Time
Civil Twilight
Nautical Twilight
Astronomical Twilight
Moon
Length of Visible Light
Length of Day
Tomorrow will be .
, % of the Moon is Illuminated

Today's Extremes

State Highs State Lows

Community

WunderPhotos

Upload Photos

1,962,540 photos uploaded!

WunderBlog® & News

Nearby

Air Quality

  Air Quality AQ Index Pollutant
Not available.

Snow Depth

Station Depth Elevation

Earthquake Activity

City Distance Mag. Time & Date
Minimum magnitude displayed is 2.5.

Earthquake Activity

City Distance Mag. Time & Date
Minimum magnitude displayed is 2.5.

Coastal Water Temperatures

Place Temperature

Stations

Nearby Weather Stations

Station Location Temp. Windchill Dew Point Humidity Wind Precip. Elev Updated Type
                   

Watches & Warnings

There are currently no watches in effect.